createdAt,value
2019-04-16T00:01:25.228Z,95302.28
2019-04-16T00:03:56.805Z,95296.98
2019-04-16T00:06:28.520Z,95297.06
2019-04-16T00:09:00.063Z,95293.92
2019-04-16T00:11:34.358Z,95292.48
2019-04-16T00:14:17.876Z,95290.88
2019-04-16T00:16:47.888Z,95288.88
2019-04-16T00:19:17.859Z,95290.52
2019-04-16T00:21:49.435Z,95288.53
2019-04-16T00:24:21.050Z,95298.46
2019-04-16T00:26:51.646Z,95292.20
2019-04-16T00:29:21.676Z,95286.45
2019-04-16T00:31:53.322Z,95288.91
2019-04-16T00:34:23.350Z,95286.83
2019-04-16T00:36:53.365Z,95288.25
2019-04-16T00:39:24.796Z,95281.00
2019-04-16T00:41:55.464Z,95287.27
2019-04-16T00:44:25.576Z,95280.13
2019-04-16T00:46:55.484Z,95280.02
2019-04-16T00:49:26.576Z,95278.28
2019-04-16T00:51:57.150Z,95281.81
2019-04-16T00:54:27.196Z,95276.77
2019-04-16T00:56:57.132Z,95280.83
2019-04-16T00:59:27.170Z,95276.88
2019-04-16T01:01:57.108Z,95277.83
2019-04-16T01:04:27.131Z,95278.40
2019-04-16T01:06:57.143Z,95278.40
2019-04-16T01:09:27.176Z,95277.11
2019-04-16T01:11:57.182Z,95280.38
2019-04-16T01:14:27.482Z,95288.76
2019-04-16T01:16:57.639Z,95285.19
2019-04-16T01:19:27.679Z,95288.15
2019-04-16T01:21:57.622Z,95289.36
2019-04-16T01:24:27.594Z,95288.29
2019-04-16T01:26:59.055Z,95285.36
2019-04-16T01:29:33.659Z,95283.05
2019-04-16T01:32:18.753Z,95289.44
2019-04-16T01:40:50.948Z,95289.16
2019-04-16T01:43:25.518Z,95284.41
2019-04-16T01:45:52.663Z,95286.33
2019-04-16T01:48:22.603Z,95285.70
2019-04-16T01:50:52.644Z,95285.13
2019-04-16T01:53:22.582Z,95281.63
2019-04-16T01:55:56.746Z,95286.62
2019-04-16T01:58:24.270Z,95284.84
2019-04-16T02:00:54.242Z,95281.27
2019-04-16T02:03:24.252Z,95279.82
2019-04-16T02:05:54.863Z,95284.05
2019-04-16T02:08:28.307Z,95286.81
2019-04-16T02:10:57.340Z,95276.95
2019-04-16T02:13:27.328Z,95275.68
2019-04-16T02:15:57.259Z,95281.19
2019-04-16T02:18:29.821Z,95277.44
2019-04-16T02:20:58.872Z,95273.39
2019-04-16T02:23:28.839Z,95277.98
2019-04-16T02:25:58.802Z,95273.84
2019-04-16T02:28:29.048Z,95274.30
2019-04-16T02:30:59.279Z,95273.20
2019-04-16T02:33:29.249Z,95272.73
2019-04-16T02:35:59.188Z,95277.08
2019-04-16T02:38:29.235Z,95279.45
2019-04-16T02:40:59.167Z,95281.19
2019-04-16T02:43:29.139Z,95288.44
2019-04-16T02:45:59.178Z,95295.88
2019-04-16T02:48:29.125Z,95294.13
2019-04-16T02:51:07.318Z,95300.73
2019-04-16T02:53:42.734Z,95300.14
2019-04-16T02:56:20.052Z,95303.25
2019-04-16T02:58:51.658Z,95309.70
2019-04-16T03:01:23.309Z,95303.38
2019-04-16T03:03:56.237Z,95304.05
2019-04-16T03:06:31.484Z,95305.48
2019-04-16T03:08:58.310Z,95301.62
2019-04-16T03:11:28.246Z,95302.80
2019-04-16T03:13:59.338Z,95309.32
2019-04-16T03:16:43.235Z,95311.48
2019-04-16T03:19:18.864Z,95309.95
2019-04-16T03:21:46.518Z,95314.30
2019-04-16T03:24:16.459Z,95314.08
2019-04-16T03:26:47.635Z,95311.22
2019-04-16T03:29:18.166Z,95308.63
2019-04-16T03:31:48.120Z,95307.35
2019-04-16T03:34:21.458Z,95302.47
2019-04-16T03:36:49.721Z,95299.41
2019-04-16T03:39:19.682Z,95297.84
2019-04-16T03:41:49.624Z,95301.55
2019-04-16T03:44:19.595Z,95292.33
2019-04-16T03:46:49.535Z,95296.25
2019-04-16T03:49:19.511Z,95288.64
2019-04-16T03:51:49.456Z,95285.40
2019-04-16T03:54:22.305Z,95281.54
2019-04-16T03:56:51.072Z,95278.35
2019-04-16T03:59:21.047Z,95273.76
2019-04-16T04:01:51.057Z,95278.20
2019-04-16T04:04:21.037Z,95290.98
2019-04-16T04:06:50.973Z,95295.73
2019-04-16T04:09:22.225Z,95294.62
2019-04-16T04:11:52.584Z,95297.65
2019-04-16T04:14:23.610Z,95296.34
2019-04-16T04:16:53.872Z,95294.49
2019-04-16T04:19:23.843Z,95290.37
2019-04-16T04:21:54.490Z,95297.30
2019-04-16T04:24:24.551Z,95304.73
2019-04-16T04:26:54.489Z,95298.70
2019-04-16T04:29:24.955Z,95304.47
2019-04-16T04:31:55.296Z,95305.91
2019-04-16T04:34:25.267Z,95305.80
2019-04-16T04:36:58.724Z,95299.09
2019-04-16T04:39:26.858Z,95301.55
2019-04-16T04:41:57.259Z,95306.25
2019-04-16T04:44:27.541Z,95304.58
2019-04-16T04:46:57.529Z,95307.20
2019-04-16T04:49:30.348Z,95310.22
2019-04-16T04:51:59.290Z,95316.03
2019-04-16T04:54:29.261Z,95321.73
2019-04-16T04:57:00.241Z,95327.94
2019-04-16T04:59:30.626Z,95330.73
2019-04-16T05:02:01.378Z,95331.08
2019-04-16T05:04:35.933Z,95332.37
2019-04-16T05:07:08.624Z,95339.25
2019-04-16T05:09:38.597Z,95340.77
2019-04-16T05:12:08.711Z,95348.91
2019-04-16T05:14:40.312Z,95345.22
2019-04-16T05:17:10.283Z,95339.92
2019-04-16T05:19:40.221Z,95334.34
2019-04-16T05:22:10.205Z,95335.31
2019-04-16T05:24:40.208Z,95335.72
2019-04-16T05:27:10.274Z,95338.48
2019-04-16T05:29:40.246Z,95338.48
2019-04-16T05:32:10.246Z,95341.63
2019-04-16T05:34:40.214Z,95339.72
2019-04-16T05:37:10.165Z,95338.52
2019-04-16T05:39:40.100Z,95340.91
2019-04-16T05:42:10.078Z,95333.34
2019-04-16T05:44:40.442Z,95329.63
2019-04-16T05:47:10.465Z,95331.24
2019-04-16T05:49:41.170Z,95338.34
2019-04-16T05:52:11.278Z,95333.56
2019-04-16T05:54:44.446Z,95341.20
2019-04-16T05:57:27.431Z,95338.05
2019-04-16T05:59:58.253Z,95337.53
2019-04-16T06:02:32.899Z,95334.71
2019-04-16T06:05:02.250Z,95335.00
2019-04-16T06:07:37.711Z,95331.61
2019-04-16T06:10:07.231Z,95332.45
2019-04-16T06:12:54.432Z,95340.58
2019-04-16T06:15:26.888Z,95338.06
2019-04-16T06:17:58.491Z,95338.86
2019-04-16T06:20:33.330Z,95336.93
2019-04-16T06:23:07.881Z,95336.93
2019-04-16T06:25:41.407Z,95335.94
2019-04-16T06:28:17.462Z,95328.58
2019-04-16T06:30:51.289Z,95328.56
2019-04-16T06:33:32.105Z,95328.56
2019-04-16T06:36:19.536Z,95330.13
2019-04-16T06:38:51.391Z,95330.13
2019-04-16T06:41:22.683Z,95337.88
2019-04-16T06:43:58.381Z,95337.88
2019-04-16T06:46:45.274Z,95343.52
2019-04-16T06:49:23.714Z,95341.36
2019-04-16T06:52:16.065Z,95338.33
2019-04-16T06:54:52.363Z,95333.77
2019-04-16T06:57:42.858Z,95333.77
2019-04-16T07:00:25.166Z,95340.17
2019-04-16T07:03:02.580Z,95340.17
2019-04-16T07:05:48.658Z,95342.39
2019-04-16T07:08:36.923Z,95341.41
2019-04-16T07:10:58.674Z,95341.41
2019-04-16T07:13:28.420Z,95335.38
2019-04-16T07:15:58.079Z,95338.64
2019-04-16T07:18:27.779Z,95338.64
2019-04-16T07:20:57.508Z,95341.70
2019-04-16T07:23:27.468Z,95342.84
2019-04-16T07:25:57.534Z,95335.33
2019-04-16T07:28:29.155Z,95333.88
2019-04-16T07:31:32.879Z,95335.52
2019-04-16T07:34:01.573Z,95334.38
2019-04-16T07:36:32.883Z,95330.41
2019-04-16T07:39:05.268Z,95335.17
2019-04-16T07:41:46.155Z,95336.16
2019-04-16T07:44:17.472Z,95335.95
2019-04-16T07:46:54.685Z,95338.07
2019-04-16T07:49:41.951Z,95336.47
2019-04-16T07:52:22.161Z,95345.52
2019-04-16T07:54:53.476Z,95337.22
2019-04-16T07:57:23.187Z,95345.25
2019-04-16T07:59:52.948Z,95344.20
2019-04-16T08:02:22.587Z,95339.67
2019-04-16T08:04:52.236Z,95341.28
2019-04-16T08:07:21.911Z,95344.59
2019-04-16T08:09:51.699Z,95346.14
2019-04-16T08:12:29.885Z,95345.55
2019-04-16T08:14:52.857Z,95345.67
2019-04-16T08:17:22.532Z,95340.89
2019-04-16T08:19:55.196Z,95340.94
2019-04-16T08:22:24.541Z,95343.95
2019-04-16T08:24:59.743Z,95345.90
2019-04-16T08:27:27.512Z,95345.23
2019-04-16T08:30:02.471Z,95348.48
2019-04-16T08:32:28.639Z,95348.02
2019-04-16T08:34:58.377Z,95344.87
2019-04-16T08:37:28.035Z,95351.56
2019-04-16T08:39:57.750Z,95352.27
2019-04-16T08:42:29.515Z,95349.66
2019-04-16T08:44:58.861Z,95355.03
2019-04-16T08:47:28.617Z,95347.45
2019-04-16T08:49:58.581Z,95352.94
2019-04-16T08:52:28.587Z,95351.63
2019-04-16T08:54:58.264Z,95355.59
2019-04-16T08:57:31.755Z,95356.12
2019-04-16T08:59:59.288Z,95362.88
2019-04-16T09:02:29.335Z,95365.98
2019-04-16T09:04:59.792Z,95358.98
2019-04-16T09:07:41.532Z,95356.52
2019-04-16T09:10:18.253Z,95358.64
2019-04-16T09:12:50.751Z,95357.03
2019-04-16T09:15:17.976Z,95363.43
2019-04-16T09:17:49.518Z,95362.46
2019-04-16T09:20:23.048Z,95354.56
2019-04-16T09:22:53.821Z,95357.34
2019-04-16T09:25:28.042Z,95358.17
2019-04-16T09:28:02.438Z,95351.74
2019-04-16T09:30:39.604Z,95359.97
2019-04-16T09:33:16.878Z,95354.38
2019-04-16T09:35:49.643Z,95355.83
2019-04-16T09:38:21.073Z,95347.57
2019-04-16T09:40:54.503Z,95344.52
2019-04-16T09:43:34.847Z,95345.50
2019-04-16T09:46:10.913Z,95346.55
2019-04-16T09:48:35.949Z,95345.59
2019-04-16T09:51:06.597Z,95342.08
2019-04-16T09:53:39.985Z,95338.23
2019-04-16T09:56:19.672Z,95343.84
2019-04-16T09:58:49.475Z,95333.30
2019-04-16T10:01:22.039Z,95332.48
2019-04-16T10:03:55.957Z,95324.98
2019-04-16T10:06:25.693Z,95327.70
2019-04-16T10:08:56.819Z,95329.16
2019-04-16T10:11:26.758Z,95326.99
2019-04-16T10:13:56.541Z,95317.41
2019-04-16T10:16:27.941Z,95324.72
2019-04-16T10:18:57.682Z,95319.31
2019-04-16T10:21:29.067Z,95318.50
2019-04-16T10:24:00.328Z,95317.03
2019-04-16T10:26:30.289Z,95310.17
2019-04-16T10:29:05.814Z,95315.46
2019-04-16T10:31:34.260Z,95311.97
2019-04-16T10:34:04.034Z,95309.83
2019-04-16T10:36:37.128Z,95311.22
2019-04-16T10:39:20.970Z,95310.88
2019-04-16T10:41:56.533Z,95315.95
2019-04-16T10:44:44.140Z,95312.87
2019-04-16T10:47:24.078Z,95311.52
2019-04-16T10:49:55.626Z,95309.45
2019-04-16T10:52:43.409Z,95302.58
2019-04-16T10:55:20.530Z,95299.41
2019-04-16T10:58:06.788Z,95297.39
2019-04-16T11:00:54.298Z,95297.28
2019-04-16T11:03:28.524Z,95290.05
2019-04-16T11:06:00.078Z,95289.59
2019-04-16T11:08:29.873Z,95287.16
2019-04-16T11:10:59.679Z,95281.06
2019-04-16T11:13:39.933Z,95286.27
2019-04-16T11:16:13.752Z,95279.48
2019-04-16T11:18:44.240Z,95285.81
2019-04-16T11:21:14.058Z,95282.59
2019-04-16T11:23:43.792Z,95278.01
2019-04-16T11:26:13.526Z,95288.23
2019-04-16T11:28:43.212Z,95273.94
2019-04-16T11:31:14.559Z,95275.80
2019-04-16T11:33:44.421Z,95282.71
2019-04-16T11:36:19.394Z,95277.86
2019-04-16T11:38:45.490Z,95266.37
2019-04-16T11:41:15.383Z,95269.86
2019-04-16T11:43:45.022Z,95266.41
2019-04-16T11:46:14.870Z,95267.94
2019-04-16T11:48:44.568Z,95262.84
2019-04-16T11:51:14.393Z,95273.50
2019-04-16T11:53:44.138Z,95271.84
2019-04-16T11:56:13.816Z,95268.56
2019-04-16T11:58:44.973Z,95266.42
2019-04-16T12:01:23.252Z,95268.99
2019-04-16T12:03:56.283Z,95264.42
2019-04-16T12:06:31.399Z,95262.14
2019-04-16T12:09:04.776Z,95261.95
2019-04-16T12:11:42.586Z,95255.20
2019-04-16T12:14:29.630Z,95259.55
2019-04-16T12:17:05.398Z,95256.43
2019-04-16T12:19:45.759Z,95259.63
2019-04-16T12:22:22.729Z,95258.24
2019-04-16T12:25:05.767Z,95251.27
2019-04-16T12:27:37.139Z,95248.26
2019-04-16T12:30:24.991Z,95248.22
2019-04-16T12:33:14.376Z,95253.70
2019-04-16T12:35:47.755Z,95255.17
2019-04-16T12:38:19.031Z,95261.34
2019-04-16T12:40:53.108Z,95260.73
2019-04-16T12:43:27.212Z,95259.48
2019-04-16T12:46:10.317Z,95253.13
2019-04-16T12:48:47.190Z,95253.16
2019-04-16T12:51:21.250Z,95260.67
2019-04-16T12:53:53.517Z,95255.45
2019-04-16T12:56:41.404Z,95255.73
2019-04-16T12:59:22.083Z,95251.45
2019-04-16T13:02:00.680Z,95244.17
2019-04-16T13:04:41.695Z,95247.05
2019-04-16T13:07:13.008Z,95246.98
2019-04-16T13:09:52.948Z,95248.26
2019-04-16T13:12:32.647Z,95245.91
2019-04-16T13:15:19.183Z,95245.42
2019-04-16T13:17:56.041Z,95250.01
2019-04-16T13:20:43.125Z,95253.19
2019-04-16T13:23:14.448Z,95249.70
2019-04-16T13:26:00.722Z,95236.44
2019-04-16T13:28:30.463Z,95238.84
2019-04-16T13:31:00.107Z,95242.00
2019-04-16T13:33:29.750Z,95239.79
2019-04-16T13:35:59.556Z,95239.20
2019-04-16T13:38:31.116Z,95244.07
2019-04-16T13:41:02.184Z,95235.07
2019-04-16T13:43:45.961Z,95237.82
2019-04-16T13:46:15.711Z,95233.16
2019-04-16T13:48:49.642Z,95244.80
2019-04-16T13:51:20.972Z,95240.81
2019-04-16T13:54:08.413Z,95233.56
2019-04-16T13:56:42.268Z,95241.45
2019-04-16T13:59:13.561Z,95238.07
2019-04-16T14:01:45.994Z,95244.05
2019-04-16T14:04:15.830Z,95237.56
2019-04-16T14:06:46.217Z,95232.87
2019-04-16T14:09:15.985Z,95230.02
2019-04-16T14:11:45.622Z,95224.27
2019-04-16T14:14:18.207Z,95229.23
2019-04-16T14:16:47.202Z,95233.59
2019-04-16T14:19:16.947Z,95230.63
2019-04-16T14:21:47.100Z,95231.03
2019-04-16T14:24:16.975Z,95234.32
2019-04-16T14:26:46.721Z,95231.19
2019-04-16T14:29:16.357Z,95227.83
2019-04-16T14:31:48.953Z,95227.70
2019-04-16T14:34:36.987Z,95232.54
2019-04-16T14:37:06.658Z,95234.04
2019-04-16T14:39:37.941Z,95238.09
2019-04-16T14:42:07.782Z,95235.66
2019-04-16T14:44:47.811Z,95235.25
2019-04-16T14:47:17.823Z,95245.13
2019-04-16T14:49:47.820Z,95237.08
2019-04-16T14:52:18.994Z,95240.17
2019-04-16T14:55:06.347Z,95235.69
2019-04-16T14:57:39.770Z,95234.05
2019-04-16T15:00:16.693Z,95245.75
2019-04-16T15:02:53.681Z,95244.25
2019-04-16T15:05:24.994Z,95245.75
2019-04-16T15:07:56.277Z,95245.44
2019-04-16T15:10:36.575Z,95247.13
2019-04-16T15:13:25.662Z,95245.77
2019-04-16T15:16:10.912Z,95251.17
2019-04-16T15:19:04.738Z,95246.73
2019-04-16T15:21:36.101Z,95249.05
2019-04-16T15:24:13.096Z,95254.22
2019-04-16T15:26:44.527Z,95252.48
2019-04-16T15:29:15.848Z,95255.52
2019-04-16T15:31:49.929Z,95257.22
2019-04-16T15:34:24.028Z,95257.85
2019-04-16T15:36:55.239Z,95258.52
2019-04-16T15:39:26.491Z,95260.36
2019-04-16T15:42:17.498Z,95257.39
2019-04-16T15:44:52.638Z,95266.30
2019-04-16T15:47:32.825Z,95272.03
2019-04-16T15:50:04.196Z,95267.67
2019-04-16T15:52:46.508Z,95278.77
2019-04-16T15:55:26.230Z,95270.83
2019-04-16T15:58:04.670Z,95271.86
2019-04-16T16:00:52.521Z,95279.03
2019-04-16T16:03:32.784Z,95273.54
2019-04-16T16:06:04.276Z,95278.34
2019-04-16T16:08:38.487Z,95281.23
2019-04-16T16:11:08.928Z,95281.89
2019-04-16T16:13:38.194Z,95282.72
2019-04-16T16:16:10.475Z,95285.30
2019-04-16T16:18:39.817Z,95287.38
2019-04-16T16:21:09.526Z,95290.58
2019-04-16T16:23:39.180Z,95292.22
2019-04-16T16:26:08.847Z,95294.72
2019-04-16T16:28:38.486Z,95293.95
2019-04-16T16:31:08.135Z,95295.48
2019-04-16T16:33:37.875Z,95298.02
2019-04-16T16:36:07.580Z,95299.61
2019-04-16T16:38:37.262Z,95291.89
2019-04-16T16:41:06.944Z,95292.78
2019-04-16T16:43:37.263Z,95296.05
2019-04-16T16:46:08.568Z,95293.06
2019-04-16T16:48:39.353Z,95290.24
2019-04-16T16:51:09.037Z,95292.41
2019-04-16T16:53:45.875Z,95293.63
2019-04-16T16:56:25.957Z,95288.13
2019-04-16T16:58:59.968Z,95301.20
2019-04-16T17:01:34.933Z,95296.55
2019-04-16T17:04:04.732Z,95300.70
2019-04-16T17:06:34.120Z,95297.64
2019-04-16T17:09:04.104Z,95301.13
2019-04-16T17:11:35.423Z,95303.14
2019-04-16T17:14:05.239Z,95307.16
2019-04-16T17:16:34.870Z,95303.26
2019-04-16T17:19:04.690Z,95311.02
2019-04-16T17:21:34.540Z,95306.28
2019-04-16T17:24:04.575Z,95310.42
2019-04-16T17:26:34.549Z,95313.92
2019-04-16T17:29:04.219Z,95317.88
2019-04-16T17:31:36.010Z,95327.14
2019-04-16T17:34:06.719Z,95329.10
2019-04-16T17:36:36.345Z,95326.20
2019-04-16T17:39:10.563Z,95326.13
2019-04-16T17:41:57.758Z,95331.94
2019-04-16T17:44:42.928Z,95332.94
2019-04-16T17:47:30.807Z,95331.50
2019-04-16T17:49:47.194Z,95334.99
2019-04-16T17:52:27.458Z,95341.27
2019-04-16T17:55:01.239Z,95348.15
2019-04-16T17:57:35.083Z,95347.34
2019-04-16T18:00:24.197Z,95354.74
2019-04-16T18:03:10.670Z,95352.92
2019-04-16T18:05:41.975Z,95362.62
2019-04-16T18:08:19.188Z,95371.33
2019-04-16T18:10:53.407Z,95375.76
2019-04-16T18:13:31.672Z,95376.91
2019-04-16T18:16:19.743Z,95378.05
2019-04-16T18:18:52.935Z,95382.48
2019-04-16T18:21:39.028Z,95389.37
2019-04-16T18:24:28.373Z,95395.59
2019-04-16T18:26:59.716Z,95400.34
2019-04-16T18:29:42.588Z,95399.20
2019-04-16T18:32:21.274Z,95397.55
2019-04-16T18:34:58.775Z,95402.75
2019-04-16T18:37:33.052Z,95404.06
2019-04-16T18:40:20.195Z,95406.80
2019-04-16T18:43:09.633Z,95405.29
2019-04-16T18:45:58.714Z,95405.77
2019-04-16T18:48:30.023Z,95406.43
2019-04-16T18:51:01.420Z,95410.05
2019-04-16T18:53:31.173Z,95413.99
2019-04-16T18:56:00.882Z,95417.72
2019-04-16T18:58:30.587Z,95413.61
2019-04-16T19:01:01.958Z,95420.61
2019-04-16T19:03:31.657Z,95423.38
2019-04-16T19:06:01.871Z,95427.44
2019-04-16T19:08:41.666Z,95428.56
2019-04-16T19:11:03.660Z,95430.18
2019-04-16T19:13:33.417Z,95431.97
2019-04-16T19:16:03.069Z,95426.02
2019-04-16T19:18:32.698Z,95431.05
2019-04-16T19:21:02.344Z,95432.99
2019-04-16T19:23:32.069Z,95434.80
2019-04-16T19:26:01.945Z,95438.36
2019-04-16T19:28:31.746Z,95440.16
2019-04-16T19:31:01.446Z,95439.92
2019-04-16T19:33:37.903Z,95448.54
2019-04-16T19:36:02.772Z,95455.45
2019-04-16T19:38:32.748Z,95455.49
2019-04-16T19:41:04.045Z,95462.73
2019-04-16T19:43:35.335Z,95462.20
2019-04-16T19:46:05.106Z,95463.83
2019-04-16T19:48:36.243Z,95467.41
2019-04-16T19:51:07.372Z,95479.92
2019-04-16T19:53:37.682Z,95480.63
2019-04-16T19:56:07.388Z,95489.60
2019-04-16T19:58:37.113Z,95491.33
2019-04-16T20:01:06.843Z,95489.70
2019-04-16T20:03:36.553Z,95486.86
2019-04-16T20:06:06.264Z,95485.31
2019-04-16T20:08:39.884Z,95494.00
2019-04-16T20:11:07.392Z,95495.41
2019-04-16T20:13:37.194Z,95497.13
2019-04-16T20:16:06.823Z,95498.58
2019-04-16T20:18:50.181Z,95499.41
2019-04-16T20:21:07.811Z,95502.31
2019-04-16T20:23:37.485Z,95499.85
2019-04-16T20:26:07.097Z,95504.55
2019-04-16T20:28:36.804Z,95502.85
2019-04-16T20:31:06.735Z,95501.98
2019-04-16T20:33:36.429Z,95502.40
2019-04-16T20:36:06.454Z,95503.32
2019-04-16T20:38:36.511Z,95509.47
2019-04-16T20:41:06.172Z,95503.18
2019-04-16T20:43:35.802Z,95504.09
2019-04-16T20:46:05.457Z,95502.20
2019-04-16T20:48:35.087Z,95503.87
2019-04-16T20:51:04.798Z,95499.61
2019-04-16T20:53:34.527Z,95500.45
2019-04-16T20:56:04.230Z,95503.64
2019-04-16T20:58:33.898Z,95512.20
2019-04-16T21:01:04.306Z,95515.98
2019-04-16T21:03:33.968Z,95507.34
2019-04-16T21:06:07.443Z,95510.63
2019-04-16T21:08:35.091Z,95512.84
2019-04-16T21:11:08.828Z,95517.92
2019-04-16T21:13:36.114Z,95518.47
2019-04-16T21:16:05.802Z,95510.70
2019-04-16T21:18:35.490Z,95518.86
2019-04-16T21:21:05.185Z,95515.42
2019-04-16T21:23:36.034Z,95515.89
2019-04-16T21:26:05.820Z,95513.63
2019-04-16T21:28:39.604Z,95512.65
2019-04-16T21:34:16.322Z,95505.45
2019-04-16T21:36:50.446Z,95502.82
2019-04-16T21:39:24.514Z,95502.98
2019-04-16T21:41:54.237Z,95497.55
2019-04-16T21:44:23.859Z,95505.53
2019-04-16T21:46:57.010Z,95501.34
2019-04-16T21:49:37.690Z,95507.87
2019-04-16T21:52:08.316Z,95504.17
2019-04-16T21:54:39.360Z,95511.13
2019-04-16T21:57:13.148Z,95516.09
2019-04-16T21:59:40.329Z,95513.30
2019-04-16T22:02:29.706Z,95517.27
2019-04-16T22:04:59.396Z,95527.48
2019-04-16T22:07:29.099Z,95523.75
2019-04-16T22:09:58.748Z,95526.84
2019-04-16T22:12:28.439Z,95524.88
2019-04-16T22:14:58.110Z,95524.89
2019-04-16T22:17:27.727Z,95533.09
2019-04-16T22:20:01.351Z,95528.59
2019-04-16T22:22:28.761Z,95532.66
2019-04-16T22:24:58.420Z,95535.27
2019-04-16T22:27:28.068Z,95530.33
2019-04-16T22:29:57.996Z,95541.25
2019-04-16T22:32:30.859Z,95531.09
2019-04-16T22:34:59.185Z,95531.80
2019-04-16T22:37:29.913Z,95532.19
2019-04-16T22:40:06.896Z,95537.03
2019-04-16T22:42:57.302Z,95541.41
2019-04-16T22:45:38.373Z,95537.73
2019-04-16T22:48:08.033Z,95539.77
2019-04-16T22:50:38.670Z,95549.33
2019-04-16T22:53:08.583Z,95560.68
2019-04-16T22:55:42.342Z,95557.36
2019-04-16T22:58:11.534Z,95561.25
2019-04-16T23:00:44.399Z,95566.56
2019-04-16T23:03:16.639Z,95563.95
2019-04-16T23:05:45.501Z,95567.59
2019-04-16T23:08:15.111Z,95570.55
2019-04-16T23:10:44.736Z,95571.13
2019-04-16T23:13:14.384Z,95573.86
2019-04-16T23:15:44.108Z,95577.52
2019-04-16T23:18:17.203Z,95585.03
2019-04-16T23:20:45.073Z,95591.30
2019-04-16T23:23:18.205Z,95585.53
2019-04-16T23:25:46.107Z,95581.61
2019-04-16T23:28:15.793Z,95585.83
2019-04-16T23:30:48.004Z,95588.90
2019-04-16T23:33:16.771Z,95582.26
2019-04-16T23:35:46.406Z,95584.03
2019-04-16T23:38:16.063Z,95588.14
2019-04-16T23:40:45.736Z,95594.63
2019-04-16T23:43:22.116Z,95592.47
2019-04-16T23:46:08.586Z,95587.97
2019-04-16T23:48:44.805Z,95591.34
2019-04-16T23:51:34.414Z,95588.16
2019-04-16T23:54:14.636Z,95591.44
2019-04-16T23:56:45.899Z,95593.53
2019-04-16T23:59:17.191Z,95589.14
